sensor_id;sensor_type;location;lat;lon;timestamp;pressure;altitude;pressure_sealevel;temperature
20736;BMP180;10528;52.124;5.196;2023-04-12T00:02:19;100374.00;;;16.40
20736;BMP180;10528;52.124;5.196;2023-04-12T00:04:46;100364.00;;;16.40
20736;BMP180;10528;52.124;5.196;2023-04-12T00:07:22;100364.00;;;16.40
20736;BMP180;10528;52.124;5.196;2023-04-12T00:09:50;100348.00;;;16.40
20736;BMP180;10528;52.124;5.196;2023-04-12T00:12:18;100352.00;;;16.30
20736;BMP180;10528;52.124;5.196;2023-04-12T00:14:45;100350.00;;;16.30
20736;BMP180;10528;52.124;5.196;2023-04-12T00:17:12;100335.00;;;16.30
20736;BMP180;10528;52.124;5.196;2023-04-12T00:19:39;100316.00;;;16.30
20736;BMP180;10528;52.124;5.196;2023-04-12T00:22:08;100320.00;;;16.30
20736;BMP180;10528;52.124;5.196;2023-04-12T00:24:38;100314.00;;;16.20
20736;BMP180;10528;52.124;5.196;2023-04-12T00:27:08;100318.00;;;16.20
20736;BMP180;10528;52.124;5.196;2023-04-12T00:29:35;100307.00;;;16.20
20736;BMP180;10528;52.124;5.196;2023-04-12T00:32:02;100301.00;;;16.10
20736;BMP180;10528;52.124;5.196;2023-04-12T00:34:31;100283.00;;;16.10
20736;BMP180;10528;52.124;5.196;2023-04-12T00:36:59;100287.00;;;16.00
20736;BMP180;10528;52.124;5.196;2023-04-12T00:39:26;100280.00;;;16.00
20736;BMP180;10528;52.124;5.196;2023-04-12T00:41:56;100252.00;;;16.00
20736;BMP180;10528;52.124;5.196;2023-04-12T00:44:23;100240.00;;;16.00
20736;BMP180;10528;52.124;5.196;2023-04-12T00:46:50;100234.00;;;15.90
20736;BMP180;10528;52.124;5.196;2023-04-12T00:49:17;100228.00;;;15.90
20736;BMP180;10528;52.124;5.196;2023-04-12T00:51:44;100223.00;;;15.90
20736;BMP180;10528;52.124;5.196;2023-04-12T00:54:13;100215.00;;;15.80
20736;BMP180;10528;52.124;5.196;2023-04-12T00:56:40;100189.00;;;15.80
20736;BMP180;10528;52.124;5.196;2023-04-12T00:59:07;100187.00;;;15.80
20736;BMP180;10528;52.124;5.196;2023-04-12T01:01:34;100202.00;;;15.70
20736;BMP180;10528;52.124;5.196;2023-04-12T01:04:01;100201.00;;;15.70
20736;BMP180;10528;52.124;5.196;2023-04-12T01:06:55;100197.00;;;15.70
20736;BMP180;10528;52.124;5.196;2023-04-12T01:12:48;100162.00;;;15.60
20736;BMP180;10528;52.124;5.196;2023-04-12T01:15:18;100166.00;;;15.60
20736;BMP180;10528;52.124;5.196;2023-04-12T01:17:55;100158.00;;;15.50
20736;BMP180;10528;52.124;5.196;2023-04-12T01:20:32;100147.00;;;15.50
20736;BMP180;10528;52.124;5.196;2023-04-12T01:23:25;100142.00;;;15.50
20736;BMP180;10528;52.124;5.196;2023-04-12T01:26:30;100135.00;;;15.40
20736;BMP180;10528;52.124;5.196;2023-04-12T01:29:07;100116.00;;;15.50
20736;BMP180;10528;52.124;5.196;2023-04-12T01:31:38;100110.00;;;15.40
20736;BMP180;10528;52.124;5.196;2023-04-12T01:34:09;100108.00;;;15.40
20736;BMP180;10528;52.124;5.196;2023-04-12T01:36:38;100099.00;;;15.40
20736;BMP180;10528;52.124;5.196;2023-04-12T01:39:06;100084.00;;;15.40
20736;BMP180;10528;52.124;5.196;2023-04-12T01:41:39;100081.00;;;15.40
20736;BMP180;10528;52.124;5.196;2023-04-12T01:44:07;100069.00;;;15.40
20736;BMP180;10528;52.124;5.196;2023-04-12T01:46:34;100076.00;;;15.40
20736;BMP180;10528;52.124;5.196;2023-04-12T01:49:03;100065.00;;;15.40
20736;BMP180;10528;52.124;5.196;2023-04-12T01:54:20;100039.00;;;15.40
20736;BMP180;10528;52.124;5.196;2023-04-12T01:56:54;100035.00;;;15.30
20736;BMP180;10528;52.124;5.196;2023-04-12T01:59:30;100037.00;;;15.30
20736;BMP180;10528;52.124;5.196;2023-04-12T02:01:58;100026.00;;;15.30
20736;BMP180;10528;52.124;5.196;2023-04-12T02:04:26;100016.00;;;15.30
20736;BMP180;10528;52.124;5.196;2023-04-12T02:06:54;100006.00;;;15.30
20736;BMP180;10528;52.124;5.196;2023-04-12T02:09:21;99998.00;;;15.30
20736;BMP180;10528;52.124;5.196;2023-04-12T02:11:48;99992.00;;;15.30
20736;BMP180;10528;52.124;5.196;2023-04-12T02:14:16;99987.00;;;15.20
20736;BMP180;10528;52.124;5.196;2023-04-12T02:16:44;99995.00;;;15.30
20736;BMP180;10528;52.124;5.196;2023-04-12T02:19:11;99975.00;;;15.30
20736;BMP180;10528;52.124;5.196;2023-04-12T02:21:42;99968.00;;;15.20
20736;BMP180;10528;52.124;5.196;2023-04-12T02:24:10;99963.00;;;15.20
20736;BMP180;10528;52.124;5.196;2023-04-12T02:26:38;99944.00;;;15.20
20736;BMP180;10528;52.124;5.196;2023-04-12T02:29:08;99944.00;;;15.20
20736;BMP180;10528;52.124;5.196;2023-04-12T02:31:36;99939.00;;;15.30
20736;BMP180;10528;52.124;5.196;2023-04-12T02:34:07;99944.00;;;15.30
20736;BMP180;10528;52.124;5.196;2023-04-12T02:36:36;99928.00;;;15.30
20736;BMP180;10528;52.124;5.196;2023-04-12T02:39:04;99920.00;;;15.30
20736;BMP180;10528;52.124;5.196;2023-04-12T02:41:33;99897.00;;;15.30
20736;BMP180;10528;52.124;5.196;2023-04-12T02:44:00;99901.00;;;15.30
20736;BMP180;10528;52.124;5.196;2023-04-12T02:46:27;99904.00;;;15.30
20736;BMP180;10528;52.124;5.196;2023-04-12T02:48:57;99910.00;;;15.30
20736;BMP180;10528;52.124;5.196;2023-04-12T02:51:31;99912.00;;;15.30
20736;BMP180;10528;52.124;5.196;2023-04-12T02:53:59;99900.00;;;15.30
20736;BMP180;10528;52.124;5.196;2023-04-12T02:56:36;99881.00;;;15.30
20736;BMP180;10528;52.124;5.196;2023-04-12T02:59:16;99864.00;;;15.30
20736;BMP180;10528;52.124;5.196;2023-04-12T03:02:03;99877.00;;;15.30
20736;BMP180;10528;52.124;5.196;2023-04-12T03:04:32;99868.00;;;15.30
20736;BMP180;10528;52.124;5.196;2023-04-12T03:07:00;99843.00;;;15.20
20736;BMP180;10528;52.124;5.196;2023-04-12T03:09:33;99840.00;;;15.20
20736;BMP180;10528;52.124;5.196;2023-04-12T03:12:01;99844.00;;;15.20
20736;BMP180;10528;52.124;5.196;2023-04-12T03:14:32;99854.00;;;15.20
20736;BMP180;10528;52.124;5.196;2023-04-12T03:16:59;99844.00;;;15.20
20736;BMP180;10528;52.124;5.196;2023-04-12T03:19:26;99829.00;;;15.30
20736;BMP180;10528;52.124;5.196;2023-04-12T03:21:54;99839.00;;;15.20
20736;BMP180;10528;52.124;5.196;2023-04-12T03:24:21;99836.00;;;15.20
20736;BMP180;10528;52.124;5.196;2023-04-12T03:26:49;99825.00;;;15.20
20736;BMP180;10528;52.124;5.196;2023-04-12T03:29:22;99834.00;;;15.20
20736;BMP180;10528;52.124;5.196;2023-04-12T03:31:51;99819.00;;;15.20
20736;BMP180;10528;52.124;5.196;2023-04-12T03:34:18;99807.00;;;15.20
20736;BMP180;10528;52.124;5.196;2023-04-12T03:36:49;99793.00;;;15.20
20736;BMP180;10528;52.124;5.196;2023-04-12T03:39:39;99812.00;;;15.10
20736;BMP180;10528;52.124;5.196;2023-04-12T03:42:08;99805.00;;;15.10
20736;BMP180;10528;52.124;5.196;2023-04-12T03:44:51;99782.00;;;15.10
20736;BMP180;10528;52.124;5.196;2023-04-12T03:47:20;99783.00;;;15.10
20736;BMP180;10528;52.124;5.196;2023-04-12T03:49:48;99771.00;;;15.10
20736;BMP180;10528;52.124;5.196;2023-04-12T03:52:36;99781.00;;;15.10
20736;BMP180;10528;52.124;5.196;2023-04-12T03:55:06;99771.00;;;15.10
20736;BMP180;10528;52.124;5.196;2023-04-12T03:57:34;99760.00;;;15.00
20736;BMP180;10528;52.124;5.196;2023-04-12T04:00:03;99761.00;;;15.00
20736;BMP180;10528;52.124;5.196;2023-04-12T04:02:43;99745.00;;;15.00
20736;BMP180;10528;52.124;5.196;2023-04-12T04:05:14;99746.00;;;15.00
20736;BMP180;10528;52.124;5.196;2023-04-12T04:07:43;99728.00;;;15.00
20736;BMP180;10528;52.124;5.196;2023-04-12T04:10:11;99726.00;;;15.00
20736;BMP180;10528;52.124;5.196;2023-04-12T04:12:40;99729.00;;;15.00
20736;BMP180;10528;52.124;5.196;2023-04-12T04:15:10;99736.00;;;15.00
20736;BMP180;10528;52.124;5.196;2023-04-12T04:17:37;99725.00;;;15.00
20736;BMP180;10528;52.124;5.196;2023-04-12T04:20:05;99726.00;;;15.00
20736;BMP180;10528;52.124;5.196;2023-04-12T04:22:36;99723.00;;;15.10
20736;BMP180;10528;52.124;5.196;2023-04-12T04:25:04;99708.00;;;15.10
20736;BMP180;10528;52.124;5.196;2023-04-12T04:27:36;99710.00;;;15.10
20736;BMP180;10528;52.124;5.196;2023-04-12T04:30:06;99715.00;;;15.10
20736;BMP180;10528;52.124;5.196;2023-04-12T04:32:36;99714.00;;;15.10
20736;BMP180;10528;52.124;5.196;2023-04-12T04:35:04;99685.00;;;15.00
20736;BMP180;10528;52.124;5.196;2023-04-12T04:37:43;99709.00;;;15.00
20736;BMP180;10528;52.124;5.196;2023-04-12T04:40:12;99721.00;;;15.00
20736;BMP180;10528;52.124;5.196;2023-04-12T04:42:40;99687.00;;;15.00
20736;BMP180;10528;52.124;5.196;2023-04-12T04:45:09;99673.00;;;15.00
20736;BMP180;10528;52.124;5.196;2023-04-12T04:47:43;99680.00;;;15.00
20736;BMP180;10528;52.124;5.196;2023-04-12T04:50:10;99696.00;;;14.90
20736;BMP180;10528;52.124;5.196;2023-04-12T04:52:38;99702.00;;;15.00
20736;BMP180;10528;52.124;5.196;2023-04-12T04:55:09;99695.00;;;15.00
20736;BMP180;10528;52.124;5.196;2023-04-12T04:57:40;99676.00;;;14.90
20736;BMP180;10528;52.124;5.196;2023-04-12T05:00:07;99684.00;;;14.90
20736;BMP180;10528;52.124;5.196;2023-04-12T05:02:42;99699.00;;;15.00
20736;BMP180;10528;52.124;5.196;2023-04-12T05:05:13;99692.00;;;15.00
20736;BMP180;10528;52.124;5.196;2023-04-12T05:07:40;99693.00;;;15.00
20736;BMP180;10528;52.124;5.196;2023-04-12T05:10:10;99684.00;;;15.00
20736;BMP180;10528;52.124;5.196;2023-04-12T05:12:39;99678.00;;;15.00
20736;BMP180;10528;52.124;5.196;2023-04-12T05:15:07;99691.00;;;15.00
20736;BMP180;10528;52.124;5.196;2023-04-12T05:17:39;99682.00;;;15.00
20736;BMP180;10528;52.124;5.196;2023-04-12T05:20:07;99672.00;;;15.00
20736;BMP180;10528;52.124;5.196;2023-04-12T05:22:37;99687.00;;;15.00
20736;BMP180;10528;52.124;5.196;2023-04-12T05:25:05;99683.00;;;15.00
20736;BMP180;10528;52.124;5.196;2023-04-12T05:27:38;99681.00;;;15.10
20736;BMP180;10528;52.124;5.196;2023-04-12T05:30:07;99690.00;;;15.10
20736;BMP180;10528;52.124;5.196;2023-04-12T05:32:34;99694.00;;;15.10
20736;BMP180;10528;52.124;5.196;2023-04-12T05:35:02;99686.00;;;15.20
20736;BMP180;10528;52.124;5.196;2023-04-12T05:37:29;99673.00;;;15.20
20736;BMP180;10528;52.124;5.196;2023-04-12T05:39:56;99677.00;;;15.20
20736;BMP180;10528;52.124;5.196;2023-04-12T05:42:23;99686.00;;;15.20
20736;BMP180;10528;52.124;5.196;2023-04-12T05:44:50;99682.00;;;15.20
20736;BMP180;10528;52.124;5.196;2023-04-12T05:47:20;99689.00;;;15.30
20736;BMP180;10528;52.124;5.196;2023-04-12T05:49:47;99693.00;;;15.30
20736;BMP180;10528;52.124;5.196;2023-04-12T05:52:14;99686.00;;;15.30
20736;BMP180;10528;52.124;5.196;2023-04-12T05:54:41;99685.00;;;15.30
20736;BMP180;10528;52.124;5.196;2023-04-12T05:57:13;99688.00;;;15.30
20736;BMP180;10528;52.124;5.196;2023-04-12T05:59:41;99697.00;;;15.30
20736;BMP180;10528;52.124;5.196;2023-04-12T06:02:09;99699.00;;;15.30
20736;BMP180;10528;52.124;5.196;2023-04-12T06:04:36;99688.00;;;15.40
20736;BMP180;10528;52.124;5.196;2023-04-12T06:07:18;99686.00;;;15.40
20736;BMP180;10528;52.124;5.196;2023-04-12T06:09:45;99702.00;;;15.40
20736;BMP180;10528;52.124;5.196;2023-04-12T06:12:12;99701.00;;;15.40
20736;BMP180;10528;52.124;5.196;2023-04-12T06:14:39;99677.00;;;15.40
20736;BMP180;10528;52.124;5.196;2023-04-12T06:17:07;99675.00;;;15.50
20736;BMP180;10528;52.124;5.196;2023-04-12T06:19:34;99679.00;;;15.50
20736;BMP180;10528;52.124;5.196;2023-04-12T06:22:01;99685.00;;;15.50
20736;BMP180;10528;52.124;5.196;2023-04-12T06:24:29;99682.00;;;15.50
20736;BMP180;10528;52.124;5.196;2023-04-12T06:26:57;99681.00;;;15.60
20736;BMP180;10528;52.124;5.196;2023-04-12T06:29:24;99686.00;;;15.60
20736;BMP180;10528;52.124;5.196;2023-04-12T06:31:51;99686.00;;;15.60
20736;BMP180;10528;52.124;5.196;2023-04-12T06:34:18;99680.00;;;15.60
20736;BMP180;10528;52.124;5.196;2023-04-12T06:36:45;99683.00;;;15.60
20736;BMP180;10528;52.124;5.196;2023-04-12T06:39:13;99678.00;;;15.60
20736;BMP180;10528;52.124;5.196;2023-04-12T06:41:42;99672.00;;;15.60
20736;BMP180;10528;52.124;5.196;2023-04-12T06:44:18;99680.00;;;15.70
20736;BMP180;10528;52.124;5.196;2023-04-12T06:46:44;99678.00;;;15.70
20736;BMP180;10528;52.124;5.196;2023-04-12T06:49:12;99672.00;;;15.70
20736;BMP180;10528;52.124;5.196;2023-04-12T06:51:38;99679.00;;;15.70
20736;BMP180;10528;52.124;5.196;2023-04-12T06:54:05;99667.00;;;15.80
20736;BMP180;10528;52.124;5.196;2023-04-12T06:56:32;99668.00;;;15.80
20736;BMP180;10528;52.124;5.196;2023-04-12T06:59:00;99666.00;;;15.80
20736;BMP180;10528;52.124;5.196;2023-04-12T07:01:27;99673.00;;;15.90
20736;BMP180;10528;52.124;5.196;2023-04-12T07:03:54;99676.00;;;15.90
20736;BMP180;10528;52.124;5.196;2023-04-12T07:06:21;99668.00;;;15.90
20736;BMP180;10528;52.124;5.196;2023-04-12T07:08:52;99666.00;;;15.90
20736;BMP180;10528;52.124;5.196;2023-04-12T07:11:20;99658.00;;;15.90
20736;BMP180;10528;52.124;5.196;2023-04-12T07:13:49;99666.00;;;15.90
20736;BMP180;10528;52.124;5.196;2023-04-12T07:16:17;99670.00;;;16.00
20736;BMP180;10528;52.124;5.196;2023-04-12T07:18:44;99671.00;;;16.00
20736;BMP180;10528;52.124;5.196;2023-04-12T07:21:11;99672.00;;;16.00
20736;BMP180;10528;52.124;5.196;2023-04-12T07:23:43;99684.00;;;16.10
20736;BMP180;10528;52.124;5.196;2023-04-12T07:26:10;99686.00;;;16.10
20736;BMP180;10528;52.124;5.196;2023-04-12T07:28:37;99671.00;;;16.10
20736;BMP180;10528;52.124;5.196;2023-04-12T07:31:06;99675.00;;;16.10
20736;BMP180;10528;52.124;5.196;2023-04-12T07:33:33;99674.00;;;16.10
20736;BMP180;10528;52.124;5.196;2023-04-12T07:36:03;99672.00;;;16.10
20736;BMP180;10528;52.124;5.196;2023-04-12T07:38:30;99657.00;;;16.20
20736;BMP180;10528;52.124;5.196;2023-04-12T07:40:57;99665.00;;;16.20
20736;BMP180;10528;52.124;5.196;2023-04-12T07:43:24;99661.00;;;16.30
20736;BMP180;10528;52.124;5.196;2023-04-12T07:45:53;99655.00;;;16.30
20736;BMP180;10528;52.124;5.196;2023-04-12T07:48:20;99653.00;;;16.30
20736;BMP180;10528;52.124;5.196;2023-04-12T07:50:47;99661.00;;;16.40
20736;BMP180;10528;52.124;5.196;2023-04-12T07:53:23;99657.00;;;16.50
20736;BMP180;10528;52.124;5.196;2023-04-12T07:55:52;99658.00;;;16.50
20736;BMP180;10528;52.124;5.196;2023-04-12T07:58:22;99652.00;;;16.50
20736;BMP180;10528;52.124;5.196;2023-04-12T08:00:50;99670.00;;;16.60
20736;BMP180;10528;52.124;5.196;2023-04-12T08:03:17;99675.00;;;16.60
20736;BMP180;10528;52.124;5.196;2023-04-12T08:05:45;99671.00;;;16.60
20736;BMP180;10528;52.124;5.196;2023-04-12T08:08:15;99658.00;;;16.70
20736;BMP180;10528;52.124;5.196;2023-04-12T08:10:42;99648.00;;;16.70
20736;BMP180;10528;52.124;5.196;2023-04-12T08:13:09;99649.00;;;16.70
20736;BMP180;10528;52.124;5.196;2023-04-12T08:15:36;99650.00;;;16.80
20736;BMP180;10528;52.124;5.196;2023-04-12T08:18:03;99653.00;;;16.90
20736;BMP180;10528;52.124;5.196;2023-04-12T08:20:30;99644.00;;;17.00
20736;BMP180;10528;52.124;5.196;2023-04-12T08:22:58;99621.00;;;17.00
20736;BMP180;10528;52.124;5.196;2023-04-12T08:25:25;99618.00;;;17.10
20736;BMP180;10528;52.124;5.196;2023-04-12T08:27:52;99638.00;;;17.20
20736;BMP180;10528;52.124;5.196;2023-04-12T08:30:19;99637.00;;;17.30
20736;BMP180;10528;52.124;5.196;2023-04-12T08:32:52;99644.00;;;17.40
20736;BMP180;10528;52.124;5.196;2023-04-12T08:35:20;99646.00;;;17.40
20736;BMP180;10528;52.124;5.196;2023-04-12T08:37:48;99651.00;;;17.50
20736;BMP180;10528;52.124;5.196;2023-04-12T08:40:15;99651.00;;;17.60
20736;BMP180;10528;52.124;5.196;2023-04-12T08:42:43;99649.00;;;17.70
20736;BMP180;10528;52.124;5.196;2023-04-12T08:45:11;99660.00;;;17.80
20736;BMP180;10528;52.124;5.196;2023-04-12T08:47:41;99655.00;;;17.90
20736;BMP180;10528;52.124;5.196;2023-04-12T08:50:11;99657.00;;;17.90
20736;BMP180;10528;52.124;5.196;2023-04-12T08:52:41;99647.00;;;18.00
20736;BMP180;10528;52.124;5.196;2023-04-12T08:55:09;99657.00;;;18.10
20736;BMP180;10528;52.124;5.196;2023-04-12T08:57:40;99654.00;;;18.10
20736;BMP180;10528;52.124;5.196;2023-04-12T09:00:09;99652.00;;;18.20
20736;BMP180;10528;52.124;5.196;2023-04-12T09:02:37;99639.00;;;18.30
20736;BMP180;10528;52.124;5.196;2023-04-12T09:05:05;99647.00;;;18.40
20736;BMP180;10528;52.124;5.196;2023-04-12T09:07:33;99637.00;;;18.40
20736;BMP180;10528;52.124;5.196;2023-04-12T09:10:00;99629.00;;;18.50
20736;BMP180;10528;52.124;5.196;2023-04-12T09:12:27;99629.00;;;18.50
20736;BMP180;10528;52.124;5.196;2023-04-12T09:15:14;99633.00;;;18.50
20736;BMP180;10528;52.124;5.196;2023-04-12T09:17:43;99632.00;;;18.50
20736;BMP180;10528;52.124;5.196;2023-04-12T09:22:44;99623.00;;;18.50
20736;BMP180;10528;52.124;5.196;2023-04-12T09:25:14;99611.00;;;18.50
20736;BMP180;10528;52.124;5.196;2023-04-12T09:27:51;99618.00;;;18.60
20736;BMP180;10528;52.124;5.196;2023-04-12T09:30:19;99627.00;;;18.70
20736;BMP180;10528;52.124;5.196;2023-04-12T09:32:47;99629.00;;;18.80
20736;BMP180;10528;52.124;5.196;2023-04-12T09:35:15;99623.00;;;18.90
20736;BMP180;10528;52.124;5.196;2023-04-12T09:37:42;99630.00;;;18.90
20736;BMP180;10528;52.124;5.196;2023-04-12T09:40:09;99640.00;;;18.90
20736;BMP180;10528;52.124;5.196;2023-04-12T09:42:52;99638.00;;;19.00
20736;BMP180;10528;52.124;5.196;2023-04-12T09:45:24;99636.00;;;19.00
20736;BMP180;10528;52.124;5.196;2023-04-12T09:47:54;99636.00;;;19.10
20736;BMP180;10528;52.124;5.196;2023-04-12T09:50:27;99639.00;;;19.20
20736;BMP180;10528;52.124;5.196;2023-04-12T09:52:56;99635.00;;;19.20
20736;BMP180;10528;52.124;5.196;2023-04-12T09:55:26;99634.00;;;19.30
20736;BMP180;10528;52.124;5.196;2023-04-12T09:57:55;99637.00;;;19.30
20736;BMP180;10528;52.124;5.196;2023-04-12T10:00:23;99626.00;;;19.30
20736;BMP180;10528;52.124;5.196;2023-04-12T10:02:54;99622.00;;;19.40
20736;BMP180;10528;52.124;5.196;2023-04-12T10:05:24;99616.00;;;19.40
20736;BMP180;10528;52.124;5.196;2023-04-12T10:07:52;99624.00;;;19.50
20736;BMP180;10528;52.124;5.196;2023-04-12T10:10:22;99615.00;;;19.50
20736;BMP180;10528;52.124;5.196;2023-04-12T10:12:49;99629.00;;;19.70
20736;BMP180;10528;52.124;5.196;2023-04-12T10:15:17;99624.00;;;19.80
20736;BMP180;10528;52.124;5.196;2023-04-12T10:17:53;99625.00;;;19.90
20736;BMP180;10528;52.124;5.196;2023-04-12T10:20:21;99614.00;;;19.90
20736;BMP180;10528;52.124;5.196;2023-04-12T10:22:53;99620.00;;;20.00
20736;BMP180;10528;52.124;5.196;2023-04-12T10:25:24;99609.00;;;20.00
20736;BMP180;10528;52.124;5.196;2023-04-12T10:27:52;99622.00;;;20.00
20736;BMP180;10528;52.124;5.196;2023-04-12T10:30:23;99624.00;;;20.00
20736;BMP180;10528;52.124;5.196;2023-04-12T10:38:22;99623.00;;;19.90
20736;BMP180;10528;52.124;5.196;2023-04-12T10:41:20;99620.00;;;19.90
20736;BMP180;10528;52.124;5.196;2023-04-12T10:43:51;99626.00;;;19.80
20736;BMP180;10528;52.124;5.196;2023-04-12T10:49:15;99617.00;;;19.70
20736;BMP180;10528;52.124;5.196;2023-04-12T10:54:36;99621.00;;;19.80
20736;BMP180;10528;52.124;5.196;2023-04-12T10:57:06;99613.00;;;19.80
20736;BMP180;10528;52.124;5.196;2023-04-12T10:59:50;99623.00;;;19.60
20736;BMP180;10528;52.124;5.196;2023-04-12T11:02:18;99612.00;;;19.60
20736;BMP180;10528;52.124;5.196;2023-04-12T11:05:10;99623.00;;;19.60
20736;BMP180;10528;52.124;5.196;2023-04-12T11:07:53;99621.00;;;19.50
20736;BMP180;10528;52.124;5.196;2023-04-12T11:10:46;99627.00;;;19.50
20736;BMP180;10528;52.124;5.196;2023-04-12T11:13:18;99624.00;;;19.40
20736;BMP180;10528;52.124;5.196;2023-04-12T11:15:45;99622.00;;;19.40
20736;BMP180;10528;52.124;5.196;2023-04-12T11:18:12;99626.00;;;19.40
20736;BMP180;10528;52.124;5.196;2023-04-12T11:20:40;99627.00;;;19.50
20736;BMP180;10528;52.124;5.196;2023-04-12T11:23:07;99634.00;;;19.70
20736;BMP180;10528;52.124;5.196;2023-04-12T11:25:37;99631.00;;;19.60
20736;BMP180;10528;52.124;5.196;2023-04-12T11:28:04;99646.00;;;19.60
20736;BMP180;10528;52.124;5.196;2023-04-12T11:30:54;99636.00;;;19.70
20736;BMP180;10528;52.124;5.196;2023-04-12T11:33:50;99629.00;;;19.80
20736;BMP180;10528;52.124;5.196;2023-04-12T11:36:17;99636.00;;;19.80
20736;BMP180;10528;52.124;5.196;2023-04-12T11:38:46;99632.00;;;19.90
20736;BMP180;10528;52.124;5.196;2023-04-12T11:41:14;99642.00;;;19.70
20736;BMP180;10528;52.124;5.196;2023-04-12T11:43:41;99638.00;;;20.00
20736;BMP180;10528;52.124;5.196;2023-04-12T11:46:08;99634.00;;;19.90
20736;BMP180;10528;52.124;5.196;2023-04-12T11:48:35;99647.00;;;20.10
20736;BMP180;10528;52.124;5.196;2023-04-12T11:51:21;99649.00;;;19.90
20736;BMP180;10528;52.124;5.196;2023-04-12T11:53:54;99653.00;;;20.10
20736;BMP180;10528;52.124;5.196;2023-04-12T11:56:23;99646.00;;;20.00
20736;BMP180;10528;52.124;5.196;2023-04-12T11:58:50;99645.00;;;19.80
20736;BMP180;10528;52.124;5.196;2023-04-12T12:01:19;99650.00;;;20.00
20736;BMP180;10528;52.124;5.196;2023-04-12T12:03:48;99655.00;;;20.00
20736;BMP180;10528;52.124;5.196;2023-04-12T12:06:16;99641.00;;;20.20
20736;BMP180;10528;52.124;5.196;2023-04-12T12:08:44;99650.00;;;20.30
20736;BMP180;10528;52.124;5.196;2023-04-12T12:11:11;99654.00;;;20.10
20736;BMP180;10528;52.124;5.196;2023-04-12T12:13:55;99665.00;;;19.90
20736;BMP180;10528;52.124;5.196;2023-04-12T12:16:28;99648.00;;;19.80
20736;BMP180;10528;52.124;5.196;2023-04-12T12:18:56;99658.00;;;20.00
20736;BMP180;10528;52.124;5.196;2023-04-12T12:21:24;99649.00;;;20.10
20736;BMP180;10528;52.124;5.196;2023-04-12T12:23:52;99644.00;;;20.00
20736;BMP180;10528;52.124;5.196;2023-04-12T12:26:23;99656.00;;;20.00
20736;BMP180;10528;52.124;5.196;2023-04-12T12:28:55;99661.00;;;20.10
20736;BMP180;10528;52.124;5.196;2023-04-12T12:31:25;99661.00;;;20.10
20736;BMP180;10528;52.124;5.196;2023-04-12T12:33:58;99662.00;;;19.90
20736;BMP180;10528;52.124;5.196;2023-04-12T12:36:35;99660.00;;;19.90
20736;BMP180;10528;52.124;5.196;2023-04-12T12:39:07;99675.00;;;19.70
20736;BMP180;10528;52.124;5.196;2023-04-12T12:41:38;99665.00;;;20.00
20736;BMP180;10528;52.124;5.196;2023-04-12T12:44:06;99669.00;;;20.00
20736;BMP180;10528;52.124;5.196;2023-04-12T12:46:34;99668.00;;;19.90
20736;BMP180;10528;52.124;5.196;2023-04-12T12:49:04;99661.00;;;20.10
20736;BMP180;10528;52.124;5.196;2023-04-12T12:51:30;99674.00;;;20.10
20736;BMP180;10528;52.124;5.196;2023-04-12T12:53:57;99675.00;;;20.10
20736;BMP180;10528;52.124;5.196;2023-04-12T12:56:25;99674.00;;;20.10
20736;BMP180;10528;52.124;5.196;2023-04-12T12:58:52;99684.00;;;20.20
20736;BMP180;10528;52.124;5.196;2023-04-12T13:01:18;99682.00;;;20.20
20736;BMP180;10528;52.124;5.196;2023-04-12T13:03:45;99691.00;;;19.70
20736;BMP180;10528;52.124;5.196;2023-04-12T13:06:12;99683.00;;;19.40
20736;BMP180;10528;52.124;5.196;2023-04-12T13:08:39;99683.00;;;19.60
20736;BMP180;10528;52.124;5.196;2023-04-12T13:11:06;99705.00;;;19.60
20736;BMP180;10528;52.124;5.196;2023-04-12T13:13:33;99691.00;;;19.70
20736;BMP180;10528;52.124;5.196;2023-04-12T13:16:00;99687.00;;;19.70
20736;BMP180;10528;52.124;5.196;2023-04-12T13:18:27;99678.00;;;19.80
20736;BMP180;10528;52.124;5.196;2023-04-12T13:20:54;99667.00;;;19.90
20736;BMP180;10528;52.124;5.196;2023-04-12T13:23:20;99668.00;;;20.00
20736;BMP180;10528;52.124;5.196;2023-04-12T13:25:47;99671.00;;;20.00
20736;BMP180;10528;52.124;5.196;2023-04-12T13:28:14;99659.00;;;20.00
20736;BMP180;10528;52.124;5.196;2023-04-12T13:30:42;99670.00;;;20.10
20736;BMP180;10528;52.124;5.196;2023-04-12T13:33:09;99676.00;;;20.10
20736;BMP180;10528;52.124;5.196;2023-04-12T13:35:37;99680.00;;;20.20
20736;BMP180;10528;52.124;5.196;2023-04-12T13:38:03;99671.00;;;20.20
20736;BMP180;10528;52.124;5.196;2023-04-12T13:40:30;99669.00;;;20.20
20736;BMP180;10528;52.124;5.196;2023-04-12T13:42:57;99665.00;;;20.20
20736;BMP180;10528;52.124;5.196;2023-04-12T13:45:25;99660.00;;;20.20
20736;BMP180;10528;52.124;5.196;2023-04-12T13:47:52;99666.00;;;20.10
20736;BMP180;10528;52.124;5.196;2023-04-12T13:50:19;99661.00;;;20.20
20736;BMP180;10528;52.124;5.196;2023-04-12T13:52:46;99666.00;;;20.20
20736;BMP180;10528;52.124;5.196;2023-04-12T13:55:13;99665.00;;;20.00
20736;BMP180;10528;52.124;5.196;2023-04-12T13:57:40;99676.00;;;20.10
20736;BMP180;10528;52.124;5.196;2023-04-12T14:00:07;99675.00;;;20.20
20736;BMP180;10528;52.124;5.196;2023-04-12T14:02:35;99672.00;;;20.20
20736;BMP180;10528;52.124;5.196;2023-04-12T14:05:02;99677.00;;;20.10
20736;BMP180;10528;52.124;5.196;2023-04-12T14:07:29;99682.00;;;20.00
20736;BMP180;10528;52.124;5.196;2023-04-12T14:09:56;99678.00;;;20.00
20736;BMP180;10528;52.124;5.196;2023-04-12T14:12:23;99690.00;;;20.10
20736;BMP180;10528;52.124;5.196;2023-04-12T14:14:50;99687.00;;;20.00
20736;BMP180;10528;52.124;5.196;2023-04-12T14:17:17;99690.00;;;20.00
20736;BMP180;10528;52.124;5.196;2023-04-12T14:19:44;99692.00;;;20.00
20736;BMP180;10528;52.124;5.196;2023-04-12T14:22:11;99678.00;;;19.90
20736;BMP180;10528;52.124;5.196;2023-04-12T14:24:38;99681.00;;;19.80
20736;BMP180;10528;52.124;5.196;2023-04-12T14:27:06;99667.00;;;19.80
20736;BMP180;10528;52.124;5.196;2023-04-12T14:29:33;99655.00;;;19.70
20736;BMP180;10528;52.124;5.196;2023-04-12T14:32:00;99647.00;;;19.70
20736;BMP180;10528;52.124;5.196;2023-04-12T14:34:26;99652.00;;;19.70
20736;BMP180;10528;52.124;5.196;2023-04-12T14:36:54;99656.00;;;19.70
20736;BMP180;10528;52.124;5.196;2023-04-12T14:39:21;99656.00;;;19.60
20736;BMP180;10528;52.124;5.196;2023-04-12T14:41:49;99658.00;;;19.70